LFSB METAR :   2017/09/21 03:00 LFSB 210300Z 21002KT 4000 BR SCT001 04/03 Q1022 TEMPO 0500 BCFG BKN001

TAF  2017/09/21 02:37 TAF AMD LFSB 210228Z 2102/2124 VRB03KT 4000 MIFG BR FEW003 TEMPO 2103/2106 0500 BCFG BKN001 PROB40 TEMPO 2103/2106 0300 FG VV/// BECMG 2107/2109 07006KT CAVOK TEMPO 2112/2117 36006KT BECMG 2117/2119 VRB03KT PROB40 TEMPO 2121/2124 4000 BR